sensor_id;sensor_type;location;lat;lon;timestamp;pressure;altitude;pressure_sealevel;temperature;humidity
45327;BME280;31062;49.678;24.560;2023-02-02T00:01:08;97267.03;;;2.57;78.30
45327;BME280;31062;49.678;24.560;2023-02-02T00:03:54;97130.13;;;1.66;78.31
45327;BME280;31062;49.678;24.560;2023-02-02T00:06:41;97278.34;;;2.61;78.21
45327;BME280;31062;49.678;24.560;2023-02-02T00:09:28;97265.22;;;2.67;78.34
45327;BME280;31062;49.678;24.560;2023-02-02T00:12:14;97111.88;;;1.61;78.28
45327;BME280;31062;49.678;24.560;2023-02-02T00:14:59;97129.38;;;1.73;77.98
45327;BME280;31062;49.678;24.560;2023-02-02T00:17:45;97082.34;;;1.52;78.03
45327;BME280;31062;49.678;24.560;2023-02-02T00:20:31;97250.25;;;2.68;78.37
45327;BME280;31062;49.678;24.560;2023-02-02T00:23:19;97082.34;;;1.52;78.23
45327;BME280;31062;49.678;24.560;2023-02-02T00:26:04;97303.91;;;2.86;78.20
45327;BME280;31062;49.678;24.560;2023-02-02T00:28:50;97275.09;;;2.85;78.49
45327;BME280;31062;49.678;24.560;2023-02-02T00:31:35;97087.16;;;1.67;78.08
45327;BME280;31062;49.678;24.560;2023-02-02T00:34:21;97192.22;;;2.39;78.34
45327;BME280;31062;49.678;24.560;2023-02-02T00:37:07;97224.38;;;2.62;78.18
45327;BME280;31062;49.678;24.560;2023-02-02T00:39:53;97251.75;;;2.84;78.30
45327;BME280;31062;49.678;24.560;2023-02-02T00:42:38;97092.25;;;1.85;78.13
45327;BME280;31062;49.678;24.560;2023-02-02T00:45:24;97245.88;;;2.80;78.13
45327;BME280;31062;49.678;24.560;2023-02-02T00:48:11;97250.66;;;3.03;78.37
45327;BME280;31062;49.678;24.560;2023-02-02T00:50:57;97062.75;;;1.76;77.87
45327;BME280;31062;49.678;24.560;2023-02-02T00:53:43;97091.19;;;2.03;77.75
45327;BME280;31062;49.678;24.560;2023-02-02T00:56:29;97238.59;;;3.06;77.94
45327;BME280;31062;49.678;24.560;2023-02-02T00:59:14;97228.34;;;2.99;77.96
45327;BME280;31062;49.678;24.560;2023-02-02T01:02:00;97214.34;;;2.79;77.91
45327;BME280;31062;49.678;24.560;2023-02-02T01:04:46;97218.16;;;2.84;78.28
45327;BME280;31062;49.678;24.560;2023-02-02T01:07:32;97095.56;;;1.99;78.14
45327;BME280;31062;49.678;24.560;2023-02-02T01:10:17;97234.59;;;2.84;78.06
45327;BME280;31062;49.678;24.560;2023-02-02T01:13:02;97228.34;;;2.99;78.08
45327;BME280;31062;49.678;24.560;2023-02-02T01:15:54;97227.81;;;2.93;77.81
45327;BME280;31062;49.678;24.560;2023-02-02T01:18:40;97059.97;;;1.61;78.20
45327;BME280;31062;49.678;24.560;2023-02-02T01:21:25;97229.09;;;2.84;78.28
45327;BME280;31062;49.678;24.560;2023-02-02T01:24:11;97240.75;;;2.69;78.44
45327;BME280;31062;49.678;24.560;2023-02-02T01:26:57;97228.34;;;2.68;78.30
45327;BME280;31062;49.678;24.560;2023-02-02T01:29:43;97218.16;;;2.76;78.50
45327;BME280;31062;49.678;24.560;2023-02-02T01:32:29;97228.03;;;2.79;78.46
45327;BME280;31062;49.678;24.560;2023-02-02T01:35:15;97155.19;;;2.23;78.42
45327;BME280;31062;49.678;24.560;2023-02-02T01:38:00;97074.38;;;1.69;78.44
45327;BME280;31062;49.678;24.560;2023-02-02T01:40:47;97032.97;;;1.35;78.74
45327;BME280;31062;49.678;24.560;2023-02-02T01:46:35;97231.28;;;2.70;78.68
45327;BME280;31062;49.678;24.560;2023-02-02T01:49:21;97192.78;;;2.45;78.41
45327;BME280;31062;49.678;24.560;2023-02-02T01:52:09;97217.59;;;2.70;78.50
45327;BME280;31062;49.678;24.560;2023-02-02T01:54:59;97220.69;;;2.74;78.19
45327;BME280;31062;49.678;24.560;2023-02-02T01:58:41;97232.03;;;2.78;78.58
45327;BME280;31062;49.678;24.560;2023-02-02T02:01:00;97207.38;;;2.63;78.49
45327;BME280;31062;49.678;24.560;2023-02-02T02:03:46;97215.22;;;2.74;78.44
45327;BME280;31062;49.678;24.560;2023-02-02T02:06:32;97206.84;;;2.50;78.71
45327;BME280;31062;49.678;24.560;2023-02-02T02:09:19;97225.81;;;2.78;78.66
45327;BME280;31062;49.678;24.560;2023-02-02T02:12:15;97221.06;;;2.78;78.62
45327;BME280;31062;49.678;24.560;2023-02-02T02:15:01;97062.38;;;1.72;78.35
45327;BME280;31062;49.678;24.560;2023-02-02T02:31:22;97191.88;;;2.58;78.50
45327;BME280;31062;49.678;24.560;2023-02-02T02:40:51;97224.00;;;2.96;78.06
45327;BME280;31062;49.678;24.560;2023-02-02T02:43:53;97214.50;;;2.97;77.85
45327;BME280;31062;49.678;24.560;2023-02-02T02:46:41;97210.84;;;2.86;77.98
45327;BME280;31062;49.678;24.560;2023-02-02T02:49:26;97034.66;;;1.68;77.94
45327;BME280;31062;49.678;24.560;2023-02-02T02:52:13;97203.19;;;2.93;78.30
45327;BME280;31062;49.678;24.560;2023-02-02T02:54:59;97207.91;;;3.00;77.99
45327;BME280;31062;49.678;24.560;2023-02-02T02:57:59;97187.88;;;2.90;77.91
45327;BME280;31062;49.678;24.560;2023-02-02T03:01:00;97015.75;;;1.70;77.77
45327;BME280;31062;49.678;24.560;2023-02-02T03:09:46;97180.91;;;3.04;77.61
45327;BME280;31062;49.678;24.560;2023-02-02T03:12:33;97038.34;;;2.09;77.62
45327;BME280;31062;49.678;24.560;2023-02-02T03:15:18;96994.25;;;1.74;77.32
45327;BME280;31062;49.678;24.560;2023-02-02T03:18:04;97199.53;;;2.90;77.33
45327;BME280;31062;49.678;24.560;2023-02-02T03:20:50;97146.44;;;2.85;77.26
45327;BME280;31062;49.678;24.560;2023-02-02T03:23:36;97176.72;;;3.03;77.19
45327;BME280;31062;49.678;24.560;2023-02-02T03:26:22;97171.06;;;3.01;77.21
45327;BME280;31062;49.678;24.560;2023-02-02T03:29:08;97046.72;;;2.11;77.04
45327;BME280;31062;49.678;24.560;2023-02-02T03:31:54;97173.63;;;2.83;77.21
45327;BME280;31062;49.678;24.560;2023-02-02T03:34:40;97173.59;;;2.99;76.79
45327;BME280;31062;49.678;24.560;2023-02-02T03:37:25;97176.00;;;2.95;77.40
45327;BME280;31062;49.678;24.560;2023-02-02T03:40:11;97140.97;;;2.70;77.05
45327;BME280;31062;49.678;24.560;2023-02-02T03:42:57;97132.75;;;2.63;76.99
45327;BME280;31062;49.678;24.560;2023-02-02T03:45:43;97184.94;;;2.72;77.20
45327;BME280;31062;49.678;24.560;2023-02-02T03:48:29;97161.22;;;2.82;77.15
45327;BME280;31062;49.678;24.560;2023-02-02T03:51:15;97170.72;;;2.66;77.35
45327;BME280;31062;49.678;24.560;2023-02-02T03:54:01;97166.72;;;2.60;77.43
45327;BME280;31062;49.678;24.560;2023-02-02T03:56:46;97160.50;;;2.74;77.79
45327;BME280;31062;49.678;24.560;2023-02-02T03:59:32;97144.81;;;2.52;77.93
45327;BME280;31062;49.678;24.560;2023-02-02T04:02:18;96980.72;;;1.31;77.95
45327;BME280;31062;49.678;24.560;2023-02-02T04:05:04;97004.06;;;1.47;78.07
45327;BME280;31062;49.678;24.560;2023-02-02T04:07:50;97156.13;;;2.41;78.47
45327;BME280;31062;49.678;24.560;2023-02-02T04:10:35;96973.72;;;0.99;78.38
45327;BME280;31062;49.678;24.560;2023-02-02T04:13:21;97167.41;;;2.30;78.37
45327;BME280;31062;49.678;24.560;2023-02-02T04:16:06;97195.50;;;2.30;78.41
45327;BME280;31062;49.678;24.560;2023-02-02T04:18:52;97189.47;;;2.39;78.07
45327;BME280;31062;49.678;24.560;2023-02-02T04:21:38;97167.78;;;2.34;78.14
45327;BME280;31062;49.678;24.560;2023-02-02T04:24:23;97045.22;;;1.49;78.00
45327;BME280;31062;49.678;24.560;2023-02-02T04:27:09;97154.28;;;2.28;77.97
45327;BME280;31062;49.678;24.560;2023-02-02T04:29:54;97186.41;;;2.58;77.93
45327;BME280;31062;49.678;24.560;2023-02-02T04:32:40;97194.44;;;2.56;78.14
45327;BME280;31062;49.678;24.560;2023-02-02T04:35:25;97201.00;;;2.53;78.35
45327;BME280;31062;49.678;24.560;2023-02-02T04:38:12;97197.00;;;2.54;78.34
45327;BME280;31062;49.678;24.560;2023-02-02T04:40:57;97056.50;;;1.53;78.54
45327;BME280;31062;49.678;24.560;2023-02-02T04:43:43;97171.97;;;2.20;79.23
45327;BME280;31062;49.678;24.560;2023-02-02T04:46:28;97172.50;;;2.18;79.51
45327;BME280;31062;49.678;24.560;2023-02-02T04:49:14;97187.09;;;2.21;80.25
45327;BME280;31062;49.678;24.560;2023-02-02T04:51:59;97203.28;;;2.11;80.46
45327;BME280;31062;49.678;24.560;2023-02-02T04:54:45;96996.22;;;0.77;81.08
45327;BME280;31062;49.678;24.560;2023-02-02T04:57:30;97150.72;;;1.75;81.83
45327;BME280;31062;49.678;24.560;2023-02-02T05:00:17;97195.56;;;1.87;82.48
45327;BME280;31062;49.678;24.560;2023-02-02T05:03:02;96992.44;;;0.52;82.48
45327;BME280;31062;49.678;24.560;2023-02-02T05:05:48;97183.34;;;1.80;83.18
45327;BME280;31062;49.678;24.560;2023-02-02T05:08:34;97208.28;;;1.77;83.30
45327;BME280;31062;49.678;24.560;2023-02-02T05:11:23;97013.97;;;0.63;83.33
45327;BME280;31062;49.678;24.560;2023-02-02T05:14:08;97189.19;;;1.84;83.26
45327;BME280;31062;49.678;24.560;2023-02-02T05:16:54;97198.44;;;1.74;83.24
45327;BME280;31062;49.678;24.560;2023-02-02T05:19:41;97210.16;;;1.89;83.65
45327;BME280;31062;49.678;24.560;2023-02-02T05:22:27;97152.69;;;1.59;83.49
45327;BME280;31062;49.678;24.560;2023-02-02T05:25:13;97178.28;;;1.84;83.76
45327;BME280;31062;49.678;24.560;2023-02-02T05:27:58;97185.13;;;1.70;83.51
45327;BME280;31062;49.678;24.560;2023-02-02T05:30:44;97205.59;;;1.84;83.80
45327;BME280;31062;49.678;24.560;2023-02-02T05:33:30;97193.19;;;1.83;84.19
45327;BME280;31062;49.678;24.560;2023-02-02T05:36:15;97181.50;;;1.75;84.29
45327;BME280;31062;49.678;24.560;2023-02-02T05:39:01;97184.78;;;1.74;84.04
45327;BME280;31062;49.678;24.560;2023-02-02T05:41:47;97213.22;;;1.78;84.41
45327;BME280;31062;49.678;24.560;2023-02-02T05:44:32;97198.28;;;1.79;84.51
45327;BME280;31062;49.678;24.560;2023-02-02T05:47:18;97052.22;;;0.78;84.37
45327;BME280;31062;49.678;24.560;2023-02-02T05:50:03;97197.19;;;1.82;84.38
45327;BME280;31062;49.678;24.560;2023-02-02T05:52:49;97201.56;;;1.85;84.66
45327;BME280;31062;49.678;24.560;2023-02-02T05:55:35;97201.56;;;1.85;84.70
45327;BME280;31062;49.678;24.560;2023-02-02T05:58:20;97204.50;;;1.87;84.24
45327;BME280;31062;49.678;24.560;2023-02-02T06:01:06;97211.63;;;1.90;84.56
45327;BME280;31062;49.678;24.560;2023-02-02T06:03:51;97217.28;;;1.92;84.23
45327;BME280;31062;49.678;24.560;2023-02-02T06:06:36;97215.81;;;1.91;84.25
45327;BME280;31062;49.678;24.560;2023-02-02T06:09:23;97186.97;;;1.75;84.43
45327;BME280;31062;49.678;24.560;2023-02-02T06:12:09;97195.53;;;1.79;83.93
45327;BME280;31062;49.678;24.560;2023-02-02T06:14:54;97222.41;;;1.96;84.08
45327;BME280;31062;49.678;24.560;2023-02-02T06:17:40;97065.41;;;0.95;84.05
45327;BME280;31062;49.678;24.560;2023-02-02T06:20:26;97197.19;;;1.82;84.12
45327;BME280;31062;49.678;24.560;2023-02-02T06:23:12;97219.09;;;1.97;83.80
45327;BME280;31062;49.678;24.560;2023-02-02T06:25:58;97051.84;;;0.74;83.81
45327;BME280;31062;49.678;24.560;2023-02-02T06:28:48;97178.56;;;1.73;83.91
45327;BME280;31062;49.678;24.560;2023-02-02T06:31:34;97226.44;;;2.02;83.71
45327;BME280;31062;49.678;24.560;2023-02-02T06:34:23;97232.63;;;2.11;83.93
45327;BME280;31062;49.678;24.560;2023-02-02T06:37:08;97215.63;;;1.89;83.67
45327;BME280;31062;49.678;24.560;2023-02-02T06:39:54;97207.81;;;1.93;83.43
45327;BME280;31062;49.678;24.560;2023-02-02T06:42:40;97238.47;;;2.15;83.59
45327;BME280;31062;49.678;24.560;2023-02-02T06:45:26;97055.91;;;0.88;83.14
45327;BME280;31062;49.678;24.560;2023-02-02T06:48:12;97234.81;;;2.04;83.44
45327;BME280;31062;49.678;24.560;2023-02-02T06:50:59;97215.88;;;2.07;83.67
45327;BME280;31062;49.678;24.560;2023-02-02T06:53:48;97242.53;;;2.29;83.54
45327;BME280;31062;49.678;24.560;2023-02-02T06:56:34;97218.78;;;2.09;83.19
45327;BME280;31062;49.678;24.560;2023-02-02T06:59:19;97248.00;;;2.29;82.81
45327;BME280;31062;49.678;24.560;2023-02-02T07:02:05;97246.56;;;2.35;82.93
45327;BME280;31062;49.678;24.560;2023-02-02T07:04:50;97043.94;;;0.99;82.79
45327;BME280;31062;49.678;24.560;2023-02-02T07:07:35;97100.88;;;1.38;82.39
45327;BME280;31062;49.678;24.560;2023-02-02T07:10:21;97034.84;;;0.96;82.27
45327;BME280;31062;49.678;24.560;2023-02-02T07:13:27;97266.81;;;2.40;82.56
45327;BME280;31062;49.678;24.560;2023-02-02T07:16:14;97251.34;;;2.50;82.46
45327;BME280;31062;49.678;24.560;2023-02-02T07:19:00;97088.84;;;1.34;82.39
45327;BME280;31062;49.678;24.560;2023-02-02T07:21:45;97257.19;;;2.54;82.29
45327;BME280;31062;49.678;24.560;2023-02-02T07:24:31;97262.28;;;2.50;81.67
45327;BME280;31062;49.678;24.560;2023-02-02T07:27:17;97245.13;;;2.42;81.98
45327;BME280;31062;49.678;24.560;2023-02-02T07:30:03;97110.78;;;1.49;82.19
45327;BME280;31062;49.678;24.560;2023-02-02T07:32:49;97256.44;;;2.54;81.70
45327;BME280;31062;49.678;24.560;2023-02-02T07:35:34;97215.53;;;2.18;81.53
45327;BME280;31062;49.678;24.560;2023-02-02T07:38:21;97069.50;;;1.16;81.61
45327;BME280;31062;49.678;24.560;2023-02-02T07:41:06;97235.59;;;2.28;81.47
45327;BME280;31062;49.678;24.560;2023-02-02T07:43:56;97261.91;;;2.46;81.54
45327;BME280;31062;49.678;24.560;2023-02-02T07:46:45;97098.66;;;1.29;81.60
45327;BME280;31062;49.678;24.560;2023-02-02T07:49:32;97120.38;;;1.42;81.80
45327;BME280;31062;49.678;24.560;2023-02-02T07:52:17;97287.44;;;2.49;81.75
45327;BME280;31062;49.678;24.560;2023-02-02T07:55:03;97130.59;;;1.42;81.40
45327;BME280;31062;49.678;24.560;2023-02-02T07:57:59;97193.38;;;1.85;81.22
45327;BME280;31062;49.678;24.560;2023-02-02T08:00:46;97074.16;;;1.01;81.83
45327;BME280;31062;49.678;24.560;2023-02-02T08:03:32;97273.53;;;2.39;81.92
45327;BME280;31062;49.678;24.560;2023-02-02T08:06:20;97299.47;;;2.38;81.93
45327;BME280;31062;49.678;24.560;2023-02-02T08:09:07;97284.50;;;2.46;82.23
45327;BME280;31062;49.678;24.560;2023-02-02T08:11:53;97292.88;;;2.41;82.02
45327;BME280;31062;49.678;24.560;2023-02-02T08:14:39;97312.97;;;2.51;82.35
45327;BME280;31062;49.678;24.560;2023-02-02T08:17:26;97282.31;;;2.45;82.32
45327;BME280;31062;49.678;24.560;2023-02-02T08:20:12;97110.69;;;1.34;82.30
45327;BME280;31062;49.678;24.560;2023-02-02T08:22:58;97295.13;;;2.50;82.13
45327;BME280;31062;49.678;24.560;2023-02-02T08:25:43;97294.00;;;2.53;81.75
45327;BME280;31062;49.678;24.560;2023-02-02T08:28:29;97296.72;;;2.45;81.75
45327;BME280;31062;49.678;24.560;2023-02-02T08:31:17;97303.84;;;2.49;82.11
45327;BME280;31062;49.678;24.560;2023-02-02T08:34:04;97331.94;;;2.49;82.03
45327;BME280;31062;49.678;24.560;2023-02-02T08:36:50;97259.47;;;2.20;81.94
45327;BME280;31062;49.678;24.560;2023-02-02T08:39:35;97333.41;;;2.50;82.03
45327;BME280;31062;49.678;24.560;2023-02-02T08:42:21;97329.59;;;2.53;81.69
45327;BME280;31062;49.678;24.560;2023-02-02T08:45:07;97307.31;;;2.49;82.07
45327;BME280;31062;49.678;24.560;2023-02-02T08:48:12;97318.84;;;2.55;82.17
45327;BME280;31062;49.678;24.560;2023-02-02T08:50:59;97308.78;;;2.50;81.79
45327;BME280;31062;49.678;24.560;2023-02-02T08:53:45;97285.22;;;2.32;81.38
45327;BME280;31062;49.678;24.560;2023-02-02T08:56:31;97310.56;;;2.40;81.19
45327;BME280;31062;49.678;24.560;2023-02-02T08:59:16;97138.19;;;1.36;81.63
45327;BME280;31062;49.678;24.560;2023-02-02T09:02:02;97173.63;;;1.64;81.78
45327;BME280;31062;49.678;24.560;2023-02-02T09:04:47;97321.78;;;2.72;81.53
45327;BME280;31062;49.678;24.560;2023-02-02T09:07:33;97321.09;;;2.79;82.06
45327;BME280;31062;49.678;24.560;2023-02-02T09:10:18;97307.19;;;2.70;82.43
45327;BME280;31062;49.678;24.560;2023-02-02T09:13:04;97134.69;;;1.71;82.54
45327;BME280;31062;49.678;24.560;2023-02-02T09:15:50;97329.84;;;2.93;82.55
45327;BME280;31062;49.678;24.560;2023-02-02T09:18:35;97316.34;;;3.03;81.52
45327;BME280;31062;49.678;24.560;2023-02-02T09:21:22;97340.81;;;3.16;81.23
45327;BME280;31062;49.678;24.560;2023-02-02T09:24:11;97319.81;;;3.18;79.95
45327;BME280;31062;49.678;24.560;2023-02-02T09:26:57;97317.44;;;3.00;79.93
45327;BME280;31062;49.678;24.560;2023-02-02T09:29:43;97183.78;;;2.15;79.93
45327;BME280;31062;49.678;24.560;2023-02-02T09:32:29;97128.50;;;1.78;80.02
45327;BME280;31062;49.678;24.560;2023-02-02T09:35:15;97288.59;;;2.91;79.81
45327;BME280;31062;49.678;24.560;2023-02-02T09:38:02;97314.53;;;2.90;80.28
45327;BME280;31062;49.678;24.560;2023-02-02T09:40:47;97321.09;;;2.95;80.19
45327;BME280;31062;49.678;24.560;2023-02-02T09:43:49;97317.44;;;3.00;80.51
45327;BME280;31062;49.678;24.560;2023-02-02T09:55:59;97297.91;;;3.11;79.64
45327;BME280;31062;49.678;24.560;2023-02-02T09:58:53;97295.00;;;3.32;79.15
45327;BME280;31062;49.678;24.560;2023-02-02T10:01:41;97289.31;;;3.22;79.42
45327;BME280;31062;49.678;24.560;2023-02-02T10:04:36;97306.84;;;3.42;79.03
45327;BME280;31062;49.678;24.560;2023-02-02T10:07:32;97243.72;;;3.02;78.96
45327;BME280;31062;49.678;24.560;2023-02-02T10:10:27;97294.81;;;3.37;78.27
45327;BME280;31062;49.678;24.560;2023-02-02T10:13:20;97297.72;;;3.32;78.39
45327;BME280;31062;49.678;24.560;2023-02-02T10:16:18;97283.13;;;3.29;77.96
45327;BME280;31062;49.678;24.560;2023-02-02T10:19:09;97287.84;;;3.28;78.49
45327;BME280;31062;49.678;24.560;2023-02-02T10:22:06;97305.00;;;3.52;78.65
45327;BME280;31062;49.678;24.560;2023-02-02T10:24:57;97296.25;;;3.53;77.75
45327;BME280;31062;49.678;24.560;2023-02-02T10:27:50;97307.94;;;3.54;77.63
45327;BME280;31062;49.678;24.560;2023-02-02T10:30:45;97313.78;;;3.43;77.49
45327;BME280;31062;49.678;24.560;2023-02-02T10:33:37;97297.72;;;3.47;77.41
45327;BME280;31062;49.678;24.560;2023-02-02T10:39:53;97307.56;;;3.57;77.33
45327;BME280;31062;49.678;24.560;2023-02-02T10:45:56;97300.97;;;3.60;77.38
45327;BME280;31062;49.678;24.560;2023-02-02T10:48:46;97117.81;;;2.41;77.49
45327;BME280;31062;49.678;24.560;2023-02-02T10:51:32;97290.56;;;3.66;76.96
45327;BME280;31062;49.678;24.560;2023-02-02T10:55:00;97292.91;;;3.70;77.11
45327;BME280;31062;49.678;24.560;2023-02-02T11:00:50;97113.44;;;2.53;76.27
45327;BME280;31062;49.678;24.560;2023-02-02T11:03:37;97299.13;;;3.78;76.57
45327;BME280;31062;49.678;24.560;2023-02-02T11:06:24;97308.63;;;3.69;76.11
45327;BME280;31062;49.678;24.560;2023-02-02T11:09:38;97290.34;;;3.80;76.48
45327;BME280;31062;49.678;24.560;2023-02-02T11:12:35;97268.09;;;3.68;76.22
45327;BME280;31062;49.678;24.560;2023-02-02T11:15:29;97297.81;;;3.87;76.32
45327;BME280;31062;49.678;24.560;2023-02-02T11:18:29;97297.97;;;3.89;76.18
45327;BME280;31062;49.678;24.560;2023-02-02T11:21:22;97264.59;;;3.67;76.04
45327;BME280;31062;49.678;24.560;2023-02-02T11:36:20;97147.69;;;3.07;74.82
45327;BME280;31062;49.678;24.560;2023-02-02T11:39:19;97117.06;;;2.78;75.15
45327;BME280;31062;49.678;24.560;2023-02-02T11:42:12;97244.31;;;3.70;74.53
45327;BME280;31062;49.678;24.560;2023-02-02T11:44:59;97109.06;;;2.73;74.40
45327;BME280;31062;49.678;24.560;2023-02-02T11:47:46;97291.38;;;3.99;74.67
45327;BME280;31062;49.678;24.560;2023-02-02T11:50:32;97299.41;;;4.05;74.62
45327;BME280;31062;49.678;24.560;2023-02-02T11:53:25;97286.97;;;4.04;73.93
45327;BME280;31062;49.678;24.560;2023-02-02T11:56:23;97250.53;;;3.71;74.32
45327;BME280;31062;49.678;24.560;2023-02-02T12:02:23;97291.38;;;3.99;74.95
45327;BME280;31062;49.678;24.560;2023-02-02T12:07:54;97284.81;;;3.95;75.07
45327;BME280;31062;49.678;24.560;2023-02-02T12:20:00;97269.94;;;4.13;75.33
45327;BME280;31062;49.678;24.560;2023-02-02T12:31:36;97289.59;;;4.34;74.34
45327;BME280;31062;49.678;24.560;2023-02-02T12:37:56;97083.78;;;3.05;73.91
45327;BME280;31062;49.678;24.560;2023-02-02T12:40:54;97263.06;;;4.29;74.09
45327;BME280;31062;49.678;24.560;2023-02-02T12:43:54;97099.81;;;3.16;74.14
45327;BME280;31062;49.678;24.560;2023-02-02T12:47:11;97152.75;;;3.26;74.20
45327;BME280;31062;49.678;24.560;2023-02-02T12:50:10;97263.88;;;4.22;74.72
45327;BME280;31062;49.678;24.560;2023-02-02T12:55:46;97268.56;;;4.29;74.75
45327;BME280;31062;49.678;24.560;2023-02-02T13:04:58;97279.50;;;4.37;74.60
45327;BME280;31062;49.678;24.560;2023-02-02T13:07:51;97271.31;;;4.29;74.92
45327;BME280;31062;49.678;24.560;2023-02-02T13:10:42;97233.25;;;3.93;75.17
45327;BME280;31062;49.678;24.560;2023-02-02T13:13:32;97267.91;;;4.14;75.17
45327;BME280;31062;49.678;24.560;2023-02-02T13:16:21;97264.28;;;4.11;76.02
45327;BME280;31062;49.678;24.560;2023-02-02T13:19:13;97262.88;;;3.95;76.04
45327;BME280;31062;49.678;24.560;2023-02-02T13:22:03;97273.63;;;4.00;76.27
45327;BME280;31062;49.678;24.560;2023-02-02T13:24:51;97080.25;;;2.57;76.69
45327;BME280;31062;49.678;24.560;2023-02-02T13:27:39;97129.25;;;2.93;76.45
45327;BME280;31062;49.678;24.560;2023-02-02T13:30:31;97266.19;;;3.86;76.95
45327;BME280;31062;49.678;24.560;2023-02-02T13:33:24;97270.03;;;3.83;76.96
45327;BME280;31062;49.678;24.560;2023-02-02T13:36:22;97267.34;;;3.75;77.48
45327;BME280;31062;49.678;24.560;2023-02-02T13:39:16;97095.94;;;2.56;77.75
45327;BME280;31062;49.678;24.560;2023-02-02T13:42:05;97272.47;;;3.63;78.00
45327;BME280;31062;49.678;24.560;2023-02-02T13:45:08;97289.59;;;3.87;77.88
45327;BME280;31062;49.678;24.560;2023-02-02T14:00:47;97285.22;;;3.84;77.23
45327;BME280;31062;49.678;24.560;2023-02-02T14:03:39;97279.72;;;3.91;77.13
45327;BME280;31062;49.678;24.560;2023-02-02T14:06:27;97267.28;;;3.83;77.06
45327;BME280;31062;49.678;24.560;2023-02-02T14:09:16;97276.78;;;3.82;77.21
45327;BME280;31062;49.678;24.560;2023-02-02T14:12:06;97267.34;;;3.67;77.15
45327;BME280;31062;49.678;24.560;2023-02-02T14:14:53;97278.31;;;3.67;77.68
45327;BME280;31062;49.678;24.560;2023-02-02T14:20:47;97284.16;;;3.64;78.52
45327;BME280;31062;49.678;24.560;2023-02-02T14:24:00;97282.53;;;3.61;78.42
45327;BME280;31062;49.678;24.560;2023-02-02T14:29:57;97284.91;;;3.57;78.83
45327;BME280;31062;49.678;24.560;2023-02-02T14:32:43;97283.81;;;3.52;78.72
45327;BME280;31062;49.678;24.560;2023-02-02T14:38:25;97288.75;;;3.46;79.13
45327;BME280;31062;49.678;24.560;2023-02-02T14:45:44;97296.63;;;3.35;80.32
45327;BME280;31062;49.678;24.560;2023-02-02T14:50:55;97282.41;;;3.06;80.33
45327;BME280;31062;49.678;24.560;2023-02-02T14:54:04;97290.06;;;3.15;80.66
45327;BME280;31062;49.678;24.560;2023-02-02T14:56:59;97290.44;;;3.04;80.51
45327;BME280;31062;49.678;24.560;2023-02-02T14:59:53;97290.44;;;2.96;81.02
45327;BME280;31062;49.678;24.560;2023-02-02T15:02:46;97297.72;;;2.94;80.92
45327;BME280;31062;49.678;24.560;2023-02-02T15:05:42;97304.31;;;2.91;81.46
45327;BME280;31062;49.678;24.560;2023-02-02T15:08:30;97272.13;;;2.68;81.72
45327;BME280;31062;49.678;24.560;2023-02-02T15:11:16;97302.47;;;2.85;81.68
45327;BME280;31062;49.678;24.560;2023-02-02T15:14:15;97115.34;;;1.54;81.67
45327;BME280;31062;49.678;24.560;2023-02-02T15:20:42;97305.34;;;2.65;82.42
45327;BME280;31062;49.678;24.560;2023-02-02T15:23:41;97303.16;;;2.63;82.58
45327;BME280;31062;49.678;24.560;2023-02-02T15:26:36;97117.22;;;1.23;82.62
45327;BME280;31062;49.678;24.560;2023-02-02T15:32:25;97303.84;;;2.41;83.26
45327;BME280;31062;49.678;24.560;2023-02-02T15:35:25;97299.78;;;2.34;83.17
45327;BME280;31062;49.678;24.560;2023-02-02T15:38:18;97110.19;;;0.99;83.52
45327;BME280;31062;49.678;24.560;2023-02-02T15:41:15;97307.78;;;2.25;83.83
45327;BME280;31062;49.678;24.560;2023-02-02T15:44:26;97321.31;;;2.30;83.83
45327;BME280;31062;49.678;24.560;2023-02-02T15:47:26;97326.03;;;2.30;83.92
45327;BME280;31062;49.678;24.560;2023-02-02T15:50:18;97130.50;;;0.91;83.81
45327;BME280;31062;49.678;24.560;2023-02-02T15:56:36;97327.47;;;2.23;83.83
45327;BME280;31062;49.678;24.560;2023-02-02T15:59:27;97332.94;;;2.23;83.80
45327;BME280;31062;49.678;24.560;2023-02-02T16:02:20;97339.50;;;2.28;83.59
45327;BME280;31062;49.678;24.560;2023-02-02T16:08:16;97344.41;;;2.22;83.54
45327;BME280;31062;49.678;24.560;2023-02-02T16:11:12;97350.50;;;2.35;83.77
45327;BME280;31062;49.678;24.560;2023-02-02T16:16:46;97356.91;;;2.38;83.23
45327;BME280;31062;49.678;24.560;2023-02-02T16:19:34;97158.94;;;0.95;83.08
45327;BME280;31062;49.678;24.560;2023-02-02T16:22:21;97325.63;;;2.18;83.19
45327;BME280;31062;49.678;24.560;2023-02-02T16:25:16;97358.56;;;2.49;83.32
45327;BME280;31062;49.678;24.560;2023-02-02T16:28:04;97340.28;;;2.36;82.97
45327;BME280;31062;49.678;24.560;2023-02-02T16:30:52;97366.09;;;2.56;82.84
45327;BME280;31062;49.678;24.560;2023-02-02T16:33:53;97219.31;;;1.56;82.54
45327;BME280;31062;49.678;24.560;2023-02-02T16:36:39;97371.03;;;2.65;82.38
45327;BME280;31062;49.678;24.560;2023-02-02T16:39:25;97372.47;;;2.58;82.04
45327;BME280;31062;49.678;24.560;2023-02-02T16:42:35;97361.16;;;2.54;82.33
45327;BME280;31062;49.678;24.560;2023-02-02T16:45:38;97379.59;;;2.61;81.97
45327;BME280;31062;49.678;24.560;2023-02-02T16:48:37;97356.75;;;2.43;82.10
45327;BME280;31062;49.678;24.560;2023-02-02T16:51:26;97390.72;;;2.63;82.28
45327;BME280;31062;49.678;24.560;2023-02-02T16:54:19;97264.94;;;1.76;82.00
45327;BME280;31062;49.678;24.560;2023-02-02T16:57:06;97408.56;;;2.57;82.24
45327;BME280;31062;49.678;24.560;2023-02-02T17:00:03;97387.59;;;2.59;82.20
45327;BME280;31062;49.678;24.560;2023-02-02T17:03:07;97360.00;;;2.42;82.25
45327;BME280;31062;49.678;24.560;2023-02-02T17:05:53;97385.22;;;2.56;81.85
45327;BME280;31062;49.678;24.560;2023-02-02T17:08:39;97373.88;;;2.52;82.21
45327;BME280;31062;49.678;24.560;2023-02-02T17:11:26;97212.31;;;1.40;82.00
45327;BME280;31062;49.678;24.560;2023-02-02T17:14:18;97410.84;;;2.73;82.09
45327;BME280;31062;49.678;24.560;2023-02-02T17:17:05;97404.91;;;2.54;81.69